This is the latest recevied weather packets stored in our database for station/object KB1JDX. If no packets are shown the sender has not sent any weather packets the latest 10 day(s).
| Time | Temp. | Humidity | Pressure | Rain* | Wind** | Luminosity | Snow |
|---|---|---|---|---|---|---|---|
| 1777483165 | 18.33° C | 53% | 1014.1 hPa | 0 mm | 0 m/s | - | - |
| 1777482028 | 17.78° C | 55% | 1014.2 hPa | 0 mm | 0 m/s | - | - |
| 1777480828 | 17.78° C | 56% | 1014.6 hPa | 0 mm | 0 m/s | - | - |
| 1777479630 | 17.78° C | 55% | 1014.1 hPa | 0 mm | 0 m/s | - | - |
| 1777479565 | 17.78° C | 57% | 1014 hPa | 0 mm | 0 m/s | - | - |
| 1777477228 | 16.67° C | 59% | 1014.3 hPa | 0 mm | 1.79 m/s, 290° | - | - |
| 1777476028 | 16.11° C | 58% | 1014.3 hPa | 0 mm | 0 m/s | - | - |
| 1777475965 | 16.11° C | 58% | 1014.3 hPa | 0 mm | 0 m/s | - | - |
| 1777474830 | 15.56° C | 60% | 1014.8 hPa | 0 mm | 0 m/s | - | - |
| 1777473628 | 14.44° C | 63% | 1015.4 hPa | 0 mm | 0 m/s | - | - |
| 1777472430 | 13.89° C | 64% | 1015.7 hPa | 0 mm | 0 m/s | - | - |
| 1777472365 | 13.89° C | 64% | 1015.7 hPa | 0 mm | 2.24 m/s, 295° | - | - |
| 1777471338 | 13.33° C | 65% | 1016.1 hPa | 0 mm | 0 m/s | - | - |
| 1777471228 | 13.33° C | 65% | 1016.1 hPa | 0 mm | 0 m/s | - | - |
| 1777470028 | 12.22° C | 66% | 1016.2 hPa | 0 mm | 0 m/s | - | - |
| 1777468829 | 11.67° C | 65% | 1016.3 hPa | 0 mm | 0 m/s | - | - |
| 1777468765 | 11.67° C | 65% | 1016.2 hPa | 0 mm | 0 m/s | - | - |
| 1777466428 | 9.44° C | 52% | 1017.2 hPa | 0 mm | 0 m/s | - | - |
| 1777465228 | 8.33° C | 48% | 1017.4 hPa | 0 mm | 0 m/s | - | - |
| 1777465165 | 8.33° C | 47% | 1017.4 hPa | 0 mm | 0 m/s | - | - |
| 1777462829 | 7.22° C | 35% | 1017.4 hPa | 0 mm | 0 m/s | - | - |
| 1777462765 | 7.22° C | 34% | 1017.4 hPa | 0 mm | 0 m/s | - | - |
| 1777461868 | 7.22° C | 33% | 1017.3 hPa | 0 mm | 0 m/s | - | - |
| 1777461565 | 7.22° C | 33% | 1017.2 hPa | 0 mm | 0 m/s | - | - |
| 1777461148 | 6.67° C | 32% | 1017.4 hPa | 0 mm | 0 m/s | - | - |
* Rain latest hour (hover to see other rain measurements)
** Current wind speed in m/s (hover to see current wind gust speed)